Time;durP1;ratioP1;P1;durP2;ratioP2;P2;SDS_P1;SDS_P2;PMS_P1;PMS_P2;Temp;Humidity;BMP_temperature;BMP_pressure;BME280_temperature;BME280_humidity;BME280_pressure;Samples;Min_cycle;Max_cycle;Signal;HPM_P1;HPM_P2
2021/12/22 00:00:34;;;;;;;20.77;17.02;;;9.00;96.70;;;;;;4969225;28;20047;-72
2021/12/22 00:03:06;;;;;;;19.17;15.02;;;9.10;96.70;;;;;;4956931;28;20509;-71
2021/12/22 00:05:43;;;;;;;20.20;15.02;;;9.10;96.70;;;;;;4950648;28;20053;-72
2021/12/22 00:08:12;;;;;;;;;;;9.10;96.70;;;;;;4976287;28;20050;-72
2021/12/22 00:10:41;;;;;;;21.73;15.15;;;9.00;96.70;;;;;;4957906;28;20141;-72
2021/12/22 00:13:10;;;;;;;21.83;16.05;;;9.00;96.70;;;;;;4953669;28;20154;-72
2021/12/22 00:15:40;;;;;;;22.30;16.17;;;9.00;96.70;;;;;;4952884;28;20169;-72
2021/12/22 00:18:08;;;;;;;24.30;17.10;;;9.00;96.70;;;;;;4972594;28;20060;-71
2021/12/22 00:20:37;;;;;;;20.05;15.82;;;9.00;96.70;;;;;;4970687;28;20038;-72
2021/12/22 00:23:05;;;;;;;23.42;18.20;;;9.00;96.70;;;;;;4955820;28;20074;-71
2021/12/22 00:25:34;;;;;;;19.70;16.25;;;9.00;96.70;;;;;;4973567;28;20042;-72
2021/12/22 00:28:03;;;;;;;24.27;17.35;;;9.00;96.70;;;;;;4974679;28;20211;-72
2021/12/22 00:30:31;;;;;;;21.77;16.92;;;9.00;96.70;;;;;;4935173;28;20494;-71
2021/12/22 00:33:04;;;;;;;20.63;16.17;;;9.00;96.70;;;;;;4973685;28;20046;-72
2021/12/22 00:35:45;;;;;;;23.98;16.73;;;8.90;96.70;;;;;;4956083;28;20624;-72
2021/12/22 00:38:15;;;;;;;22.63;17.88;;;8.90;96.70;;;;;;4974167;28;20052;-71
2021/12/22 00:40:44;;;;;;;20.52;16.13;;;8.90;96.70;;;;;;4973026;28;20113;-72
2021/12/22 00:43:13;;;;;;;23.10;16.88;;;8.90;96.70;;;;;;4974359;28;20038;-71
2021/12/22 00:45:42;;;;;;;21.23;16.40;;;8.90;96.70;;;;;;4959754;28;20046;-71
2021/12/22 00:48:12;;;;;;;20.20;15.65;;;8.80;96.70;;;;;;4956982;28;20042;-71
2021/12/22 00:50:41;;;;;;;20.58;15.18;;;8.80;96.70;;;;;;4951949;28;20046;-72
2021/12/22 00:53:09;;;;;;;19.05;15.57;;;8.80;96.70;;;;;;4940779;28;20058;-72
2021/12/22 00:55:38;;;;;;;18.80;14.88;;;8.80;96.70;;;;;;4952053;28;20130;-72
2021/12/22 00:58:09;;;;;;;18.48;14.00;;;8.90;96.70;;;;;;4978302;28;20046;-72
2021/12/22 01:00:37;;;;;;;17.15;13.70;;;8.80;96.70;;;;;;4975607;28;20454;-72
2021/12/22 01:03:06;;;;;;;21.05;13.98;;;8.80;96.70;;;;;;4969368;28;20537;-71
2021/12/22 01:05:36;;;;;;;16.50;13.15;;;8.80;96.70;;;;;;4969089;28;20043;-72
2021/12/22 01:08:04;;;;;;;18.67;13.45;;;8.80;96.70;;;;;;4971712;28;20042;-72
2021/12/22 01:10:33;;;;;;;17.92;13.10;;;8.80;96.70;;;;;;4954256;28;20050;-72
2021/12/22 01:13:03;;;;;;;16.50;13.43;;;8.80;96.70;;;;;;4972614;28;20041;-72
2021/12/22 01:15:33;;;;;;;17.75;12.15;;;8.80;96.70;;;;;;4955961;28;20053;-72
2021/12/22 01:18:11;;;;;;;18.02;13.00;;;8.80;96.70;;;;;;4949477;28;20510;-72
2021/12/22 01:23:37;;;;;;;14.50;11.93;;;8.80;96.70;;;;;;4979569;28;20809;-72
2021/12/22 01:26:07;;;;;;;17.10;12.32;;;8.80;96.70;;;;;;4962301;28;20516;-72
2021/12/22 01:28:41;;;;;;;16.45;13.25;;;8.80;96.70;;;;;;4962594;28;20301;-72
2021/12/22 01:31:15;;;;;;;17.67;13.55;;;8.80;96.70;;;;;;4976106;28;20038;-71
2021/12/22 01:33:43;;;;;;;17.63;12.80;;;8.80;96.70;;;;;;4961980;28;20100;-71
2021/12/22 01:36:13;;;;;;;19.15;12.90;;;8.80;96.70;;;;;;4958576;28;20077;-72
2021/12/22 01:38:41;;;;;;;17.23;13.30;;;8.70;96.70;;;;;;4959698;28;20047;-72
2021/12/22 01:41:09;;;;;;;17.40;13.30;;;8.70;96.70;;;;;;4956623;28;20065;-72
2021/12/22 01:43:37;;;;;;;16.80;12.90;;;8.70;96.70;;;;;;4976403;28;20189;-72
2021/12/22 01:46:30;;;;;;;16.70;13.52;;;8.70;96.70;;;;;;4975491;28;20046;-72
2021/12/22 01:49:10;;;;;;;18.52;13.25;;;8.70;96.70;;;;;;4975431;28;20038;-72
2021/12/22 01:51:49;;;;;;;17.55;13.48;;;8.60;96.70;;;;;;4953357;28;20034;-72
2021/12/22 01:54:29;;;;;;;17.98;13.82;;;8.60;96.70;;;;;;4975251;28;20058;-72
2021/12/22 01:57:01;;;;;;;21.30;13.85;;;8.60;96.70;;;;;;4977990;28;20046;-72
2021/12/22 01:59:29;;;;;;;16.88;13.00;;;8.60;96.70;;;;;;4962537;28;20093;-71
2021/12/22 02:02:01;;;;;;;19.15;14.20;;;8.60;96.70;;;;;;4973389;28;20042;-71
2021/12/22 02:04:29;;;;;;;18.73;13.80;;;8.50;96.70;;;;;;4979471;28;20121;-72
2021/12/22 02:06:59;;;;;;;19.77;13.15;;;8.50;96.70;;;;;;4955103;28;20121;-72
2021/12/22 02:12:30;;;;;;;17.85;13.00;;;8.50;96.70;;;;;;4945515;28;20050;-72
2021/12/22 02:14:58;;;;;;;17.90;14.10;;;8.50;96.70;;;;;;4975255;28;20049;-71
2021/12/22 02:17:26;;;;;;;19.08;13.65;;;8.50;96.70;;;;;;4972939;28;20150;-71
2021/12/22 02:19:56;;;;;;;22.75;14.77;;;8.40;96.70;;;;;;4955439;28;20077;-71
2021/12/22 02:22:26;;;;;;;18.55;13.45;;;8.40;96.70;;;;;;4962967;28;20469;-72
2021/12/22 02:25:01;;;;;;;17.40;12.63;;;8.40;96.70;;;;;;4954697;28;20133;-72
2021/12/22 02:27:41;;;;;;;18.48;12.73;;;8.40;96.70;;;;;;4963199;28;20448;-72
2021/12/22 02:30:17;;;;;;;15.65;12.75;;;8.40;96.70;;;;;;4968452;28;20489;-72
2021/12/22 02:35:41;;;;;;;17.00;13.10;;;8.40;96.70;;;;;;4972368;28;20047;-72
2021/12/22 02:38:15;;;;;;;;;;;8.40;96.70;;;;;;4956229;28;20505;-72
2021/12/22 02:40:44;;;;;;;17.45;12.68;;;8.40;96.70;;;;;;4971460;28;20431;-72
2021/12/22 02:43:19;;;;;;;15.85;13.07;;;8.40;96.70;;;;;;4973791;28;20041;-71
2021/12/22 02:45:47;;;;;;;14.43;11.68;;;8.40;96.70;;;;;;4975213;28;20046;-71
2021/12/22 02:48:16;;;;;;;17.80;12.70;;;8.40;96.70;;;;;;4959512;28;20047;-71
2021/12/22 02:50:46;;;;;;;16.42;12.38;;;8.40;96.70;;;;;;4974234;28;20153;-72
2021/12/22 02:53:15;;;;;;;16.67;12.48;;;8.40;96.70;;;;;;4973138;28;20109;-72
2021/12/22 02:56:14;;;;;;;17.75;13.38;;;8.40;96.70;;;;;;4953991;28;20049;-72
2021/12/22 02:58:58;;;;;;;16.83;12.63;;;8.40;96.70;;;;;;4974731;28;20140;-72
2021/12/22 03:01:54;;;;;;;16.77;11.98;;;8.40;96.70;;;;;;4957396;28;20054;-72
2021/12/22 03:04:29;;;;;;;17.55;13.27;;;8.40;96.70;;;;;;4957515;28;20487;-72
2021/12/22 03:07:03;;;;;;;16.23;12.10;;;8.40;96.70;;;;;;4934227;28;20057;-72
2021/12/22 03:09:37;;;;;;;17.15;12.95;;;8.40;96.70;;;;;;4955203;28;20039;-72
2021/12/22 03:12:09;;;;;;;15.82;11.95;;;8.40;96.70;;;;;;4953057;28;20124;-71
2021/12/22 03:14:37;;;;;;;20.13;12.63;;;8.50;96.70;;;;;;4947622;28;20059;-71
2021/12/22 03:17:05;;;;;;;15.15;12.55;;;8.40;96.70;;;;;;4959813;28;20046;-72
2021/12/22 03:19:35;;;;;;;14.18;11.73;;;8.40;96.70;;;;;;4975720;28;20043;-71
2021/12/22 03:22:09;;;;;;;16.67;12.85;;;8.40;96.70;;;;;;4970365;28;20050;-71
2021/12/22 03:24:40;;;;;;;17.10;13.20;;;8.40;96.70;;;;;;4972876;28;20039;-72
2021/12/22 03:27:08;;;;;;;17.52;13.27;;;8.40;96.70;;;;;;4967927;28;20047;-71
2021/12/22 03:29:38;;;;;;;17.92;13.27;;;8.40;96.70;;;;;;4952155;28;20046;-72
2021/12/22 03:32:07;;;;;;;15.55;12.63;;;8.40;96.70;;;;;;4952520;28;20055;-71
2021/12/22 03:34:36;;;;;;;17.45;12.52;;;8.40;96.70;;;;;;4954860;28;20536;-72
2021/12/22 03:37:07;;;;;;;19.42;12.57;;;8.40;96.70;;;;;;4948994;28;20069;-72
2021/12/22 03:39:35;;;;;;;16.60;12.27;;;8.40;96.70;;;;;;4971388;28;20042;-71
2021/12/22 03:42:04;;;;;;;15.65;12.18;;;8.40;96.70;;;;;;4969894;28;20039;-72
2021/12/22 03:44:32;;;;;;;16.27;11.82;;;8.30;96.70;;;;;;4938844;28;20074;-71
2021/12/22 03:47:00;;;;;;;18.42;13.25;;;8.30;96.70;;;;;;4955401;28;20057;-72
2021/12/22 03:49:29;;;;;;;16.73;12.95;;;8.30;96.70;;;;;;4971294;28;20142;-72
2021/12/22 03:51:57;;;;;;;19.23;13.48;;;8.30;96.70;;;;;;4952027;28;20069;-72
2021/12/22 03:54:26;;;;;;;15.68;13.00;;;8.30;96.70;;;;;;4970722;28;20137;-71
2021/12/22 03:56:54;;;;;;;15.07;12.07;;;8.30;96.70;;;;;;4974926;28;20041;-71
2021/12/22 03:59:24;;;;;;;16.63;12.55;;;8.20;96.70;;;;;;4958177;28;20634;-72
2021/12/22 04:01:52;;;;;;;13.95;12.43;;;8.30;96.70;;;;;;4968212;28;20031;-71
2021/12/22 04:04:21;;;;;;;15.27;12.13;;;8.30;96.70;;;;;;4969767;28;20406;-72
2021/12/22 04:06:51;;;;;;;17.70;13.43;;;8.30;96.70;;;;;;4958236;28;20448;-72
2021/12/22 04:09:26;;;;;;;16.63;12.35;;;8.30;96.70;;;;;;4968694;28;20042;-71
2021/12/22 04:11:56;;;;;;;14.93;12.65;;;8.40;96.70;;;;;;4953657;28;20540;-72
2021/12/22 04:14:24;;;;;;;17.23;12.80;;;8.40;96.70;;;;;;4936635;28;20539;-72
2021/12/22 04:16:52;;;;;;;16.95;12.70;;;8.40;96.70;;;;;;4957082;28;20073;-71
2021/12/22 04:19:20;;;;;;;17.48;12.57;;;8.30;96.70;;;;;;4960417;28;20064;-71
2021/12/22 04:21:49;;;;;;;15.63;12.02;;;8.30;96.70;;;;;;4973223;28;20034;-71
2021/12/22 04:24:19;;;;;;;14.55;12.00;;;8.40;96.70;;;;;;4973975;28;20039;-72
2021/12/22 04:26:47;;;;;;;15.85;12.30;;;8.30;96.70;;;;;;4975370;28;20050;-71
2021/12/22 04:29:17;;;;;;;13.63;11.93;;;8.40;96.70;;;;;;4966760;28;20158;-71
2021/12/22 04:31:45;;;;;;;13.90;11.68;;;8.40;96.70;;;;;;4951572;28;20057;-72
2021/12/22 04:34:13;;;;;;;15.73;12.07;;;8.40;96.70;;;;;;4950798;28;20507;-72
2021/12/22 04:36:42;;;;;;;14.38;10.80;;;8.40;96.70;;;;;;4971591;28;20450;-72
2021/12/22 04:39:11;;;;;;;14.88;11.80;;;8.40;96.70;;;;;;4959198;28;20041;-72
2021/12/22 04:41:39;;;;;;;15.13;11.77;;;8.50;96.70;;;;;;4972680;28;20049;-72
2021/12/22 04:44:07;;;;;;;14.00;11.20;;;8.50;96.70;;;;;;4970477;28;20039;-72
2021/12/22 04:46:38;;;;;;;15.35;12.45;;;8.50;96.70;;;;;;4950381;28;20051;-72
2021/12/22 04:49:06;;;;;;;16.60;11.95;;;8.50;96.70;;;;;;4949451;28;20042;-72
2021/12/22 04:51:36;;;;;;;14.50;11.60;;;8.50;96.70;;;;;;4972958;28;20039;-72
2021/12/22 04:54:15;;;;;;;16.58;13.25;;;8.40;96.70;;;;;;4976003;28;20135;-72
2021/12/22 04:56:44;;;;;;;31.75;22.00;;;8.40;96.70;;;;;;4980123;28;20251;-72
2021/12/22 04:59:12;;;;;;;33.95;23.05;;;8.40;96.70;;;;;;4973851;28;20094;-71
2021/12/22 05:01:42;;;;;;;24.50;19.65;;;8.40;96.70;;;;;;4976159;28;20413;-71
2021/12/22 05:04:10;;;;;;;26.10;18.73;;;8.40;96.70;;;;;;4979254;28;20050;-72
2021/12/22 05:06:39;;;;;;;22.17;15.95;;;8.40;96.70;;;;;;4958708;28;20522;-71
2021/12/22 05:09:07;;;;;;;20.45;16.80;;;8.40;96.70;;;;;;4975801;28;20105;-72
2021/12/22 05:11:36;;;;;;;19.75;15.48;;;8.40;96.70;;;;;;4949806;28;20125;-72
2021/12/22 05:14:04;;;;;;;17.00;13.90;;;8.40;96.70;;;;;;4954909;28;20041;-72
2021/12/22 05:16:33;;;;;;;16.92;13.77;;;8.40;96.70;;;;;;4965252;28;20531;-72
2021/12/22 05:19:14;;;;;;;17.92;13.95;;;8.40;96.70;;;;;;4959874;28;20196;-72
2021/12/22 05:21:43;;;;;;;16.63;13.63;;;8.40;96.70;;;;;;4971085;28;20039;-72
2021/12/22 05:24:12;;;;;;;16.67;13.00;;;8.40;96.70;;;;;;4949535;28;20038;-71
2021/12/22 05:26:40;;;;;;;19.63;13.75;;;8.40;96.70;;;;;;4973813;28;20045;-72
2021/12/22 05:29:08;;;;;;;18.45;14.00;;;8.30;96.70;;;;;;4961731;28;20421;-72
2021/12/22 05:31:36;;;;;;;19.25;13.45;;;8.30;96.70;;;;;;4964267;28;20121;-72
2021/12/22 05:34:06;;;;;;;20.20;14.52;;;8.30;96.70;;;;;;4957558;28;20631;-71
2021/12/22 05:36:35;;;;;;;17.80;13.13;;;8.30;96.70;;;;;;4971871;28;20038;-72
2021/12/22 05:39:03;;;;;;;18.25;13.50;;;8.30;96.70;;;;;;4975290;28;20532;-71
2021/12/22 05:41:31;;;;;;;17.38;13.65;;;8.30;96.70;;;;;;4944393;28;20245;-72
2021/12/22 05:43:59;;;;;;;16.50;13.13;;;8.30;96.70;;;;;;4976093;28;20042;-72
2021/12/22 05:46:27;;;;;;;19.77;12.48;;;8.30;96.70;;;;;;4963221;28;20081;-72
2021/12/22 05:48:55;;;;;;;15.57;12.02;;;8.20;96.70;;;;;;4977052;28;20038;-72
2021/12/22 05:51:27;;;;;;;16.42;11.55;;;8.20;96.70;;;;;;4978811;28;20038;-72
2021/12/22 05:53:55;;;;;;;15.95;12.55;;;8.30;96.70;;;;;;4972629;28;20121;-72
2021/12/22 05:56:25;;;;;;;13.52;10.63;;;8.30;96.70;;;;;;4979941;28;20130;-72
2021/12/22 05:58:54;;;;;;;13.80;11.00;;;8.30;96.70;;;;;;4973474;28;20408;-72
2021/12/22 06:01:22;;;;;;;13.73;10.98;;;8.40;96.70;;;;;;4972210;28;20414;-72
2021/12/22 06:03:51;;;;;;;14.23;10.70;;;8.40;96.70;;;;;;4978863;28;20918;-72
2021/12/22 06:06:19;;;;;;;12.15;10.45;;;8.40;96.70;;;;;;4959296;28;20049;-72
2021/12/22 06:08:48;;;;;;;12.95;10.10;;;8.40;96.70;;;;;;4978653;28;20158;-71
2021/12/22 06:11:16;;;;;;;13.35;10.02;;;8.40;96.70;;;;;;4955022;28;21070;-72
2021/12/22 06:13:44;;;;;;;11.93;10.27;;;8.40;96.70;;;;;;4954770;28;20062;-73
2021/12/22 06:16:13;;;;;;;15.40;11.43;;;8.40;96.70;;;;;;4938627;28;20050;-71
2021/12/22 06:18:44;;;;;;;18.13;12.90;;;8.40;96.70;;;;;;4959514;28;20508;-72
2021/12/22 06:21:13;;;;;;;18.27;12.20;;;8.40;96.70;;;;;;4959128;28;20516;-72
2021/12/22 06:23:41;;;;;;;31.88;19.48;;;8.40;96.70;;;;;;4976033;28;20121;-71
2021/12/22 06:26:11;;;;;;;47.95;25.70;;;8.30;96.70;;;;;;4977609;28;20493;-71
2021/12/22 06:28:39;;;;;;;38.25;21.98;;;8.30;96.70;;;;;;4956900;28;20093;-71
2021/12/22 06:31:07;;;;;;;46.53;25.80;;;8.30;96.70;;;;;;4975385;28;20042;-71
2021/12/22 06:33:36;;;;;;;63.38;33.80;;;8.30;96.70;;;;;;4953981;28;20054;-71
2021/12/22 06:36:04;;;;;;;49.08;27.35;;;8.30;96.70;;;;;;4953524;28;20062;-71
2021/12/22 06:38:32;;;;;;;52.25;27.70;;;8.30;96.70;;;;;;4958500;28;20150;-71
2021/12/22 06:41:02;;;;;;;37.88;21.40;;;8.30;96.70;;;;;;4958186;28;20070;-72
2021/12/22 06:43:32;;;;;;;29.33;17.88;;;8.30;96.70;;;;;;4969164;28;20034;-72
2021/12/22 06:46:00;;;;;;;49.97;27.48;;;8.30;96.70;;;;;;4956802;28;20057;-71
2021/12/22 06:48:28;;;;;;;29.35;17.45;;;8.30;96.70;;;;;;4958653;28;20043;-72
2021/12/22 06:50:57;;;;;;;25.00;16.40;;;8.30;96.70;;;;;;4971553;28;20046;-71
2021/12/22 06:53:24;;;;;;;22.92;15.38;;;8.30;96.70;;;;;;4975747;28;20093;-71
2021/12/22 06:55:53;;;;;;;21.90;14.48;;;8.30;96.70;;;;;;4969535;28;20054;-71
2021/12/22 06:58:21;;;;;;;19.35;14.32;;;8.40;96.70;;;;;;4974383;28;20125;-70
2021/12/22 07:00:50;;;;;;;19.83;14.63;;;8.30;96.70;;;;;;4957500;28;20050;-71
2021/12/22 07:03:19;;;;;;;18.55;13.45;;;8.30;96.70;;;;;;4970965;28;20609;-71
2021/12/22 07:05:47;;;;;;;19.33;13.32;;;8.40;96.70;;;;;;4975101;28;20125;-72
2021/12/22 07:08:15;;;;;;;20.67;14.38;;;8.40;96.70;;;;;;4940560;28;20420;-71
2021/12/22 07:10:43;;;;;;;19.52;13.98;;;8.40;96.70;;;;;;4972409;28;20047;-71
2021/12/22 07:13:14;;;;;;;18.17;14.20;;;8.40;96.70;;;;;;4957799;28;20077;-71
2021/12/22 07:15:45;;;;;;;21.83;15.15;;;8.40;96.70;;;;;;4973219;28;20047;-71
2021/12/22 07:18:15;;;;;;;21.83;14.95;;;8.40;96.70;;;;;;4955336;28;20532;-72
2021/12/22 07:20:43;;;;;;;20.13;14.38;;;8.40;96.70;;;;;;4977996;28;20121;-73
2021/12/22 07:23:11;;;;;;;19.55;14.93;;;8.40;96.70;;;;;;4972643;28;20817;-72
2021/12/22 07:25:39;;;;;;;21.20;16.05;;;8.40;96.70;;;;;;4949250;28;20066;-71
2021/12/22 07:28:10;;;;;;;18.70;14.65;;;8.40;96.70;;;;;;4956011;28;20385;-72
2021/12/22 07:30:38;;;;;;;20.00;15.15;;;8.40;96.70;;;;;;4973006;28;20134;-71
2021/12/22 07:33:06;;;;;;;20.92;14.85;;;8.40;96.70;;;;;;4971568;28;20042;-72
2021/12/22 07:35:41;;;;;;;20.65;14.98;;;8.50;96.70;;;;;;4950894;28;20460;-71
2021/12/22 07:38:22;;;;;;;20.38;14.43;;;8.50;96.70;;;;;;4958517;28;20141;-71
2021/12/22 07:40:51;;;;;;;21.75;14.88;;;8.60;96.70;;;;;;4972286;28;20054;-71
2021/12/22 07:43:19;;;;;;;19.25;14.60;;;8.60;96.70;;;;;;4970217;28;20382;-71
2021/12/22 07:45:47;;;;;;;20.30;14.98;;;8.60;96.70;;;;;;4969432;28;20497;-70
2021/12/22 07:48:16;;;;;;;22.50;14.10;;;8.70;96.70;;;;;;4971513;28;20057;-72
2021/12/22 07:50:46;;;;;;;18.65;13.98;;;8.70;96.70;;;;;;4957615;28;20145;-72
2021/12/22 07:53:15;;;;;;;21.13;14.30;;;8.80;96.70;;;;;;4947740;28;20347;-71
2021/12/22 07:55:43;;;;;;;19.65;14.00;;;8.80;96.70;;;;;;4936930;28;20050;-71
2021/12/22 07:58:12;;;;;;;20.30;13.77;;;8.90;96.70;;;;;;4956094;28;20042;-73
2021/12/22 08:00:40;;;;;;;22.85;14.50;;;8.90;96.70;;;;;;4952343;28;20057;-72
2021/12/22 08:03:11;;;;;;;19.73;14.30;;;8.90;96.70;;;;;;4951101;28;20505;-71
2021/12/22 08:06:02;;;;;;;19.98;13.43;;;9.00;96.70;;;;;;4969120;28;20122;-72
2021/12/22 08:08:32;;;;;;;19.40;14.23;;;9.00;96.70;;;;;;4957991;28;20141;-71
2021/12/22 08:11:00;;;;;;;19.38;12.95;;;9.00;96.70;;;;;;4954919;28;20062;-71
2021/12/22 08:13:29;;;;;;;20.08;14.40;;;9.10;96.70;;;;;;4957708;28;20511;-72
2021/12/22 08:15:57;;;;;;;20.10;13.73;;;9.10;96.70;;;;;;4971363;28;20133;-72
2021/12/22 08:18:25;;;;;;;19.85;13.43;;;9.20;96.70;;;;;;4975058;28;20819;-72
2021/12/22 08:20:53;;;;;;;19.45;13.68;;;9.20;96.70;;;;;;4967847;28;20043;-72
2021/12/22 08:23:23;;;;;;;19.00;13.75;;;9.20;96.70;;;;;;4970190;28;20060;-71
2021/12/22 08:25:51;;;;;;;18.85;13.68;;;9.30;96.70;;;;;;4956287;28;20053;-72
2021/12/22 08:28:19;;;;;;;19.08;13.38;;;9.30;96.70;;;;;;4968769;28;20049;-72
2021/12/22 08:30:48;;;;;;;17.92;13.18;;;9.40;96.70;;;;;;4966034;28;20038;-71
2021/12/22 08:33:21;;;;;;;17.80;13.63;;;9.40;96.70;;;;;;4966714;28;20657;-71
2021/12/22 08:38:52;;;;;;;19.90;13.23;;;9.50;96.70;;;;;;4953358;28;20169;-72
2021/12/22 08:41:24;;;;;;;16.42;12.50;;;9.60;96.70;;;;;;4969137;28;20506;-72
2021/12/22 08:43:54;;;;;;;20.73;13.70;;;9.70;96.70;;;;;;4975461;28;20133;-71
2021/12/22 08:46:23;;;;;;;16.55;13.35;;;9.70;96.70;;;;;;4952313;28;20056;-71
2021/12/22 08:48:52;;;;;;;19.02;13.93;;;9.70;96.70;;;;;;4955927;28;20035;-71
2021/12/22 08:51:21;;;;;;;19.63;13.10;;;9.90;96.70;;;;;;4952229;28;20047;-72
2021/12/22 08:53:54;;;;;;;20.23;13.32;;;10.00;96.70;;;;;;4952307;28;20046;-72
2021/12/22 08:56:22;;;;;;;20.77;12.65;;;10.00;96.70;;;;;;4954264;28;20054;-72
2021/12/22 08:58:50;;;;;;;20.20;12.65;;;10.00;96.70;;;;;;4953101;28;20039;-71
2021/12/22 09:01:18;;;;;;;22.02;13.10;;;10.10;96.70;;;;;;4948220;28;20584;-73
2021/12/22 09:03:47;;;;;;;18.38;11.98;;;10.20;96.70;;;;;;4947777;28;20508;-73
2021/12/22 09:06:15;;;;;;;19.80;13.30;;;10.30;96.70;;;;;;4950497;28;20162;-73
2021/12/22 09:08:44;;;;;;;20.15;12.18;;;10.40;96.70;;;;;;4953934;28;20090;-73
2021/12/22 09:11:17;;;;;;;17.90;11.85;;;10.50;96.70;;;;;;4954827;28;20146;-73
2021/12/22 09:13:45;;;;;;;18.70;12.73;;;10.60;96.70;;;;;;4952825;28;20822;-73
2021/12/22 09:16:14;;;;;;;19.08;11.90;;;10.60;96.70;;;;;;4956252;28;20050;-73
2021/12/22 09:18:42;;;;;;;15.38;11.60;;;10.50;96.70;;;;;;4950006;28;20109;-72
2021/12/22 09:21:11;;;;;;;17.85;12.10;;;10.50;96.70;;;;;;4956287;28;20047;-73
2021/12/22 09:23:39;;;;;;;19.77;13.27;;;10.60;96.70;;;;;;4947575;28;20044;-73
2021/12/22 09:26:08;;;;;;;16.02;11.93;;;10.60;96.70;;;;;;4954354;28;20127;-73
2021/12/22 09:28:40;;;;;;;16.67;11.95;;;10.50;96.70;;;;;;4949458;28;20039;-73
2021/12/22 09:31:09;;;;;;;20.20;12.57;;;10.50;96.70;;;;;;4955632;28;20052;-72
2021/12/22 09:33:38;;;;;;;16.10;11.82;;;10.50;96.70;;;;;;4951423;28;20117;-72
2021/12/22 09:36:10;;;;;;;17.58;12.93;;;10.50;96.70;;;;;;4952352;28;20051;-72
2021/12/22 09:38:40;;;;;;;17.05;11.90;;;10.50;96.70;;;;;;4948343;28;20039;-72
2021/12/22 09:41:09;;;;;;;16.95;11.98;;;10.40;96.70;;;;;;4948615;28;20532;-72
2021/12/22 09:43:40;;;;;;;21.90;12.68;;;10.40;96.70;;;;;;4946644;28;20579;-72
2021/12/22 09:46:19;;;;;;;15.95;11.15;;;10.40;96.70;;;;;;4968511;28;20058;-72
2021/12/22 09:49:07;;;;;;;18.23;11.95;;;10.40;96.70;;;;;;4977597;28;20124;-71
2021/12/22 09:54:05;;;;;;;16.63;11.30;;;10.50;96.70;;;;;;4970183;28;20050;-71
2021/12/22 09:56:40;;;;;;;15.75;10.38;;;10.60;96.70;;;;;;4975978;28;20046;-72
2021/12/22 09:59:10;;;;;;;14.77;10.57;;;10.70;96.70;;;;;;4961669;28;20148;-71
2021/12/22 10:01:38;;;;;;;15.85;10.57;;;10.90;96.70;;;;;;4972553;28;20342;-72
2021/12/22 10:04:06;;;;;;;19.55;9.77;;;11.00;96.70;;;;;;4981024;28;20078;-72
2021/12/22 10:06:39;;;;;;;12.60;9.45;;;11.10;96.70;;;;;;4972197;28;20042;-72
2021/12/22 10:09:07;;;;;;;11.70;8.18;;;11.30;96.70;;;;;;4975414;28;20086;-71
2021/12/22 10:11:45;;;;;;;10.52;7.78;;;11.40;96.70;;;;;;4954208;28;20073;-72
2021/12/22 10:14:20;;;;;;;9.82;7.40;;;11.60;96.70;;;;;;4963218;28;20053;-71
2021/12/22 10:16:51;;;;;;;10.82;7.28;;;11.70;96.70;;;;;;4957622;28;20050;-71
2021/12/22 10:19:23;;;;;;;9.95;6.63;;;11.80;96.70;;;;;;4974179;28;20062;-71
2021/12/22 10:21:54;;;;;;;9.95;7.18;;;11.80;96.70;;;;;;4956118;28;20047;-71
2021/12/22 10:24:35;;;;;;;10.25;7.95;;;11.80;96.70;;;;;;4978472;28;20034;-72
2021/12/22 10:27:05;;;;;;;8.85;6.85;;;11.80;96.70;;;;;;4957353;28;20097;-72
2021/12/22 10:29:35;;;;;;;11.35;7.55;;;11.90;96.70;;;;;;4970756;28;20031;-72
2021/12/22 10:32:09;;;;;;;10.93;6.93;;;12.00;96.70;;;;;;4958384;28;20082;-73
2021/12/22 10:34:54;;;;;;;11.05;6.50;;;11.90;96.70;;;;;;4965011;28;20133;-73
2021/12/22 10:37:32;;;;;;;9.85;6.90;;;12.00;96.70;;;;;;4945990;28;20078;-73
2021/12/22 10:40:01;;;;;;;8.35;6.05;;;12.10;96.70;;;;;;4955334;28;20069;-73
2021/12/22 10:42:43;;;;;;;9.25;6.28;;;12.20;96.70;;;;;;4973217;28;20035;-72
2021/12/22 10:45:14;;;;;;;10.43;6.68;;;12.20;96.70;;;;;;4957707;28;20563;-72
2021/12/22 10:50:34;;;;;;;10.18;6.00;;;12.40;96.70;;;;;;4958272;28;20141;-73
2021/12/22 10:53:02;;;;;;;10.10;6.60;;;12.50;96.70;;;;;;4979540;28;20505;-72
2021/12/22 10:55:37;;;;;;;8.30;6.00;;;12.60;96.70;;;;;;4973212;28;20380;-72
2021/12/22 10:58:16;;;;;;;7.47;5.90;;;12.70;96.70;;;;;;4944384;28;20136;-72
2021/12/22 11:00:58;;;;;;;9.45;6.05;;;12.90;96.70;;;;;;4955710;28;20638;-71
2021/12/22 11:03:36;;;;;;;6.32;4.82;;;13.10;96.70;;;;;;4964179;28;20543;-72
2021/12/22 11:06:11;;;;;;;7.75;5.30;;;13.20;96.70;;;;;;4955016;28;20047;-72
2021/12/22 11:08:41;;;;;;;5.55;4.82;;;13.40;96.70;;;;;;4937730;28;20132;-71
2021/12/22 11:11:15;;;;;;;6.38;5.13;;;13.60;96.70;;;;;;4953519;28;20129;-72
2021/12/22 11:13:43;;;;;;;8.30;4.47;;;13.70;96.70;;;;;;4975103;28;20073;-72
2021/12/22 11:16:14;;;;;;;6.60;4.82;;;13.90;96.70;;;;;;4971137;28;20519;-72
2021/12/22 11:18:46;;;;;;;5.68;4.57;;;14.00;96.70;;;;;;4956150;28;20074;-72
2021/12/22 11:21:17;;;;;;;6.57;5.00;;;14.10;96.70;;;;;;4971867;28;20525;-72
2021/12/22 11:23:45;;;;;;;6.25;4.85;;;14.30;96.70;;;;;;4970913;28;20113;-72
2021/12/22 11:26:13;;;;;;;6.95;4.88;;;14.30;96.70;;;;;;4953217;28;20035;-73
2021/12/22 11:28:42;;;;;;;6.22;4.47;;;14.50;96.70;;;;;;4970609;28;20050;-72
2021/12/22 11:31:12;;;;;;;6.10;4.25;;;14.40;96.70;;;;;;4972723;28;20046;-72
2021/12/22 11:33:46;;;;;;;6.82;4.75;;;14.20;96.70;;;;;;4971347;28;20212;-72
2021/12/22 11:36:15;;;;;;;5.32;4.57;;;14.10;96.70;;;;;;4952607;28;20519;-71
2021/12/22 11:38:42;;;;;;;6.47;4.53;;;14.00;96.70;;;;;;4961087;28;20075;-72
2021/12/22 11:41:19;;;;;;;8.00;5.13;;;13.80;96.70;;;;;;4962327;28;20049;-72
2021/12/22 11:43:50;;;;;;;5.68;4.57;;;13.70;96.70;;;;;;4959745;28;20488;-72
2021/12/22 11:46:25;;;;;;;5.88;4.63;;;13.60;96.70;;;;;;4975309;28;20129;-72
2021/12/22 11:48:53;;;;;;;6.70;4.60;;;13.50;96.70;;;;;;4975170;28;20043;-72
2021/12/22 11:51:25;;;;;;;5.50;4.45;;;13.40;96.70;;;;;;4955936;28;20349;-72
2021/12/22 11:54:04;;;;;;;10.05;4.40;;;13.30;96.70;;;;;;4970512;28;20053;-72
2021/12/22 11:56:41;;;;;;;6.25;3.78;;;13.30;96.70;;;;;;4967920;28;20046;-72
2021/12/22 11:59:35;;;;;;;8.50;4.85;;;13.40;96.70;;;;;;4960680;28;20536;-72
2021/12/22 12:02:20;;;;;;;5.35;3.97;;;13.40;96.70;;;;;;4973532;28;20034;-72
2021/12/22 12:04:51;;;;;;;4.82;3.88;;;13.30;96.70;;;;;;4952581;28;20196;-72
2021/12/22 12:07:39;;;;;;;5.38;3.80;;;13.30;96.70;;;;;;4970672;28;20043;-72
2021/12/22 12:10:33;;;;;;;6.22;4.43;;;13.30;96.70;;;;;;4972980;28;20113;-72
2021/12/22 12:13:07;;;;;;;7.68;4.75;;;13.30;96.70;;;;;;4951321;28;20105;-71
2021/12/22 12:21:39;;;;;;;5.35;3.50;;;13.30;96.70;;;;;;4971628;28;20054;-71
2021/12/22 12:22:04;;;;;;;5.53;3.67;;;13.20;96.70;;;;;;4970748;28;20043;-71
2021/12/22 12:24:39;;;;;;;5.32;3.05;;;13.20;96.70;;;;;;4945967;28;20104;-72
2021/12/22 12:27:30;;;;;;;5.32;3.50;;;13.20;96.70;;;;;;4971519;28;20043;-72
2021/12/22 12:30:00;;;;;;;6.60;3.70;;;13.20;96.70;;;;;;4969585;28;20038;-72
2021/12/22 12:33:11;;;;;;;7.97;3.97;;;13.20;96.70;;;;;;4971676;28;20042;-71
2021/12/22 12:35:54;;;;;;;4.95;3.35;;;13.20;96.70;;;;;;4969007;28;20061;-71
2021/12/22 12:38:25;;;;;;;6.78;3.95;;;13.20;96.70;;;;;;4954658;28;20054;-71
2021/12/22 12:41:21;;;;;;;6.45;3.70;;;13.20;96.70;;;;;;4955664;28;20108;-71
2021/12/22 12:43:53;;;;;;;6.07;3.70;;;13.30;96.70;;;;;;4955379;28;20042;-71
2021/12/22 12:46:39;;;;;;;5.53;3.28;;;13.30;96.70;;;;;;4971167;28;20423;-71
2021/12/22 12:49:43;;;;;;;4.53;3.50;;;13.30;96.70;;;;;;4956550;28;20054;-72
2021/12/22 12:52:28;;;;;;;5.90;3.38;;;13.30;96.70;;;;;;4895123;29;20530;-72
2021/12/22 12:55:16;;;;;;;5.10;3.70;;;13.40;96.70;;;;;;4907416;29;20059;-72
2021/12/22 12:57:45;;;;;;;3.50;3.13;;;13.40;96.70;;;;;;4912186;29;20086;-72
2021/12/22 13:00:23;;;;;;;5.07;3.67;;;13.30;96.70;;;;;;4914536;29;20123;-72
2021/12/22 13:03:03;;;;;;;4.35;3.42;;;13.30;96.70;;;;;;4898382;29;20151;-72
2021/12/22 13:05:31;;;;;;;5.55;3.53;;;13.30;96.70;;;;;;4908767;29;20044;-71
2021/12/22 13:08:07;;;;;;;4.35;3.50;;;13.20;96.70;;;;;;4906978;29;20049;-72
2021/12/22 13:10:36;;;;;;;3.43;2.80;;;13.20;96.70;;;;;;4913561;29;20629;-72
2021/12/22 13:13:16;;;;;;;4.20;3.00;;;13.20;96.70;;;;;;4884909;29;20116;-72
2021/12/22 13:15:46;;;;;;;3.78;2.80;;;13.20;96.70;;;;;;4910797;29;20098;-72
2021/12/22 13:18:26;;;;;;;4.05;3.22;;;13.30;96.70;;;;;;4899086;29;20158;-72
2021/12/22 13:20:57;;;;;;;4.28;3.05;;;13.30;96.70;;;;;;4898981;29;20048;-72